createdAt,value
2023-09-06T00:00:47.519Z,75.30
2023-09-06T00:05:43.684Z,75.59
2023-09-06T00:08:13.604Z,76.22
2023-09-06T00:10:41.828Z,76.28
2023-09-06T00:15:37.667Z,75.29
2023-09-06T00:20:38.307Z,76.19
2023-09-06T00:23:07.259Z,76.15
2023-09-06T00:25:35.051Z,76.46
2023-09-06T00:28:05.717Z,76.20
2023-09-06T00:30:33.187Z,76.22
2023-09-06T00:33:01.647Z,76.60
2023-09-06T00:35:30.519Z,75.55
2023-09-06T00:40:25.186Z,75.89
2023-09-06T00:42:54.468Z,76.44
2023-09-06T00:45:27.761Z,75.65
2023-09-06T00:47:57.478Z,75.38
2023-09-06T00:50:25.445Z,74.91
2023-09-06T00:52:54.895Z,74.79
2023-09-06T00:55:22.559Z,74.98
2023-09-06T00:57:50.606Z,75.24
2023-09-06T01:00:20.856Z,75.49
2023-09-06T01:02:49.345Z,75.39
2023-09-06T01:05:17.828Z,75.90
2023-09-06T01:07:48.557Z,76.17
2023-09-06T01:10:15.912Z,76.45
2023-09-06T01:12:43.358Z,76.81
2023-09-06T01:15:12.641Z,77.23
2023-09-06T01:17:43.397Z,76.41
2023-09-06T01:20:17.494Z,76.86
2023-09-06T01:22:53.495Z,76.79
2023-09-06T01:25:21.283Z,77.03
2023-09-06T01:30:16.457Z,77.46
2023-09-06T01:32:43.675Z,77.79
2023-09-06T01:35:12.164Z,77.19
2023-09-06T01:37:39.509Z,77.46
2023-09-06T01:40:18.070Z,77.20
2023-09-06T01:42:46.521Z,77.88
2023-09-06T01:45:19.009Z,78.05
2023-09-06T01:47:48.434Z,77.85
2023-09-06T01:50:21.580Z,77.80
2023-09-06T01:52:49.279Z,78.29
2023-09-06T01:55:17.062Z,78.03
2023-09-06T01:57:44.369Z,77.93
2023-09-06T02:00:22.520Z,77.58
2023-09-06T02:02:49.789Z,77.62
2023-09-06T02:05:17.421Z,78.01
2023-09-06T02:07:46.524Z,78.10
2023-09-06T02:10:14.068Z,78.41
2023-09-06T02:12:41.491Z,79.24
2023-09-06T02:15:10.000Z,79.47
2023-09-06T02:17:37.267Z,79.34
2023-09-06T02:22:48.739Z,79.33
2023-09-06T02:25:17.822Z,79.67
2023-09-06T02:27:45.293Z,79.26
2023-09-06T02:32:40.024Z,78.95
2023-09-06T02:35:08.764Z,78.79
2023-09-06T02:37:38.006Z,79.01
2023-09-06T02:42:42.929Z,79.14
2023-09-06T02:45:11.284Z,79.45
2023-09-06T02:47:50.285Z,79.90
2023-09-06T02:50:19.947Z,79.93
2023-09-06T02:52:47.688Z,79.88
2023-09-06T02:55:15.480Z,80.26
2023-09-06T02:57:43.479Z,79.83
2023-09-06T03:00:24.129Z,79.72
2023-09-06T03:02:53.864Z,80.12
2023-09-06T03:07:50.090Z,79.87
2023-09-06T03:10:21.500Z,79.24
2023-09-06T03:12:49.912Z,78.99
2023-09-06T03:15:17.243Z,78.84
2023-09-06T03:17:48.563Z,78.35
2023-09-06T03:20:26.734Z,78.34
2023-09-06T03:22:54.215Z,78.04
2023-09-06T03:25:22.009Z,78.42
2023-09-06T03:27:49.736Z,78.35
2023-09-06T03:30:17.092Z,78.58
2023-09-06T03:32:44.633Z,79.22
2023-09-06T03:35:12.443Z,79.60
2023-09-06T03:37:42.943Z,79.71
2023-09-06T03:40:21.572Z,79.50
2023-09-06T03:42:49.153Z,79.20
2023-09-06T03:45:23.029Z,78.95
2023-09-06T03:47:50.745Z,79.14
2023-09-06T03:50:18.201Z,78.57
2023-09-06T03:52:45.494Z,79.37
2023-09-06T03:55:13.244Z,79.80
2023-09-06T03:57:40.564Z,79.61
2023-09-06T04:00:19.882Z,79.60
2023-09-06T04:02:47.417Z,79.86
2023-09-06T04:05:14.782Z,79.42
2023-09-06T04:07:42.055Z,79.34
2023-09-06T04:10:18.046Z,79.42
2023-09-06T04:12:45.658Z,79.56
2023-09-06T04:15:16.133Z,80.03
2023-09-06T04:17:43.545Z,80.07
2023-09-06T04:20:21.117Z,81.64
2023-09-06T04:22:48.923Z,80.68
2023-09-06T04:25:17.149Z,80.35
2023-09-06T04:30:14.867Z,80.69
2023-09-06T04:32:42.484Z,80.34
2023-09-06T04:37:37.810Z,80.23
2023-09-06T04:40:06.587Z,81.13
2023-09-06T04:42:34.060Z,80.74
2023-09-06T04:45:01.288Z,80.63
2023-09-06T04:47:28.612Z,81.05
2023-09-06T04:57:18.350Z,80.29
2023-09-06T04:59:46.331Z,80.81
2023-09-06T05:02:13.646Z,81.27
2023-09-06T05:04:40.969Z,81.71
2023-09-06T05:07:08.144Z,81.15
2023-09-06T05:09:36.271Z,80.61
2023-09-06T05:12:06.242Z,80.48
2023-09-06T05:14:34.129Z,80.98
2023-09-06T05:19:29.434Z,81.38
2023-09-06T05:21:56.918Z,81.07
2023-09-06T05:24:24.195Z,81.20
2023-09-06T05:26:51.553Z,81.69
2023-09-06T05:34:13.023Z,81.56
2023-09-06T05:36:40.462Z,81.25
2023-09-06T05:39:07.841Z,81.27
2023-09-06T05:41:35.534Z,80.69
2023-09-06T05:44:02.889Z,80.23
2023-09-06T05:46:33.694Z,80.14
2023-09-06T05:49:01.615Z,80.25
2023-09-06T05:51:28.977Z,80.59
2023-09-06T05:53:56.328Z,80.72
2023-09-06T05:56:24.118Z,81.40
2023-09-06T05:58:51.394Z,80.77
2023-09-06T06:01:19.523Z,81.15
2023-09-06T06:03:46.979Z,81.11
2023-09-06T06:06:17.910Z,80.96
2023-09-06T06:08:45.352Z,80.95
2023-09-06T06:11:13.422Z,81.06
2023-09-06T06:13:40.954Z,80.95
2023-09-06T06:16:08.442Z,80.63
2023-09-06T06:18:35.716Z,79.30
2023-09-06T06:21:04.380Z,79.90
2023-09-06T06:23:31.969Z,80.17
2023-09-06T06:25:59.389Z,80.07
2023-09-06T06:28:26.693Z,80.22
2023-09-06T06:30:54.117Z,80.17
2023-09-06T06:33:21.645Z,80.42
2023-09-06T06:35:49.140Z,79.85
2023-09-06T06:38:16.643Z,79.88
2023-09-06T06:40:44.047Z,80.14
2023-09-06T06:43:11.491Z,80.32
2023-09-06T06:45:38.750Z,79.66
2023-09-06T06:48:06.808Z,78.95
2023-09-06T06:50:34.365Z,78.42
2023-09-06T06:53:02.148Z,78.34
2023-09-06T06:55:30.549Z,78.66
2023-09-06T06:57:57.989Z,78.93
2023-09-06T07:00:25.600Z,80.06
2023-09-06T07:02:52.978Z,80.61
2023-09-06T07:05:20.383Z,79.81
2023-09-06T07:07:47.977Z,79.40
2023-09-06T07:10:16.916Z,80.17
2023-09-06T07:12:44.281Z,78.92
2023-09-06T07:15:13.098Z,78.77
2023-09-06T07:17:40.576Z,78.73
2023-09-06T07:22:37.271Z,79.09
2023-09-06T07:25:06.473Z,78.28
2023-09-06T07:27:34.064Z,78.57
2023-09-06T07:30:01.415Z,78.33
2023-09-06T07:32:28.404Z,78.32
2023-09-06T07:34:56.059Z,78.87
2023-09-06T07:37:23.488Z,78.42
2023-09-06T07:39:51.034Z,77.99
2023-09-06T07:42:18.665Z,77.83
2023-09-06T07:44:46.380Z,78.16
2023-09-06T07:47:22.114Z,78.97
2023-09-06T07:49:49.885Z,78.85
2023-09-06T07:52:28.043Z,77.89
2023-09-06T07:54:55.766Z,77.40
2023-09-06T07:57:23.057Z,78.06
2023-09-06T08:00:06.927Z,77.55
2023-09-06T08:02:40.509Z,76.80
2023-09-06T08:05:13.293Z,77.03
2023-09-06T08:07:44.501Z,77.16
2023-09-06T08:10:17.149Z,77.14
2023-09-06T08:12:45.757Z,76.75
2023-09-06T08:15:22.214Z,77.51
2023-09-06T08:17:51.016Z,77.19
2023-09-06T08:20:19.201Z,77.59
2023-09-06T08:22:46.844Z,77.63
2023-09-06T08:25:25.651Z,77.43
2023-09-06T08:27:53.475Z,77.68
2023-09-06T08:30:24.632Z,78.40
2023-09-06T08:33:13.472Z,79.09
2023-09-06T08:35:40.502Z,78.31
2023-09-06T08:38:10.684Z,77.98
2023-09-06T08:40:40.128Z,77.81
2023-09-06T08:43:11.752Z,77.85
2023-09-06T08:45:43.448Z,77.75
2023-09-06T08:48:12.298Z,76.74
2023-09-06T08:50:40.659Z,76.25
2023-09-06T08:53:23.199Z,77.08
2023-09-06T08:55:59.477Z,77.04
2023-09-06T08:58:28.665Z,76.86
2023-09-06T09:00:57.343Z,76.99
2023-09-06T09:03:24.803Z,75.74
2023-09-06T09:05:52.387Z,76.36
2023-09-06T09:08:20.003Z,76.83
2023-09-06T09:11:10.190Z,75.66
2023-09-06T09:13:51.600Z,75.90
2023-09-06T09:16:19.148Z,76.57
2023-09-06T09:18:47.458Z,75.83
2023-09-06T09:21:15.551Z,74.58
2023-09-06T09:23:49.117Z,74.01
2023-09-06T09:26:21.407Z,73.76
2023-09-06T09:28:49.130Z,73.48
2023-09-06T09:31:18.184Z,72.60
2023-09-06T09:33:51.672Z,73.15
2023-09-06T09:36:19.946Z,72.82
2023-09-06T09:41:20.148Z,71.89
2023-09-06T09:43:47.635Z,71.90
2023-09-06T09:46:28.176Z,71.79
2023-09-06T09:53:55.450Z,69.33
2023-09-06T09:56:28.036Z,69.90
2023-09-06T09:58:56.899Z,70.08
2023-09-06T10:01:24.267Z,70.70
2023-09-06T10:03:57.149Z,70.25
2023-09-06T10:06:28.338Z,70.26
2023-09-06T10:08:58.962Z,70.38
2023-09-06T10:11:31.309Z,70.45
2023-09-06T10:14:12.426Z,70.05
2023-09-06T10:16:42.483Z,69.91
2023-09-06T10:20:00.906Z,70.75
2023-09-06T10:22:23.541Z,70.04
2023-09-06T10:24:54.088Z,70.10
2023-09-06T10:27:21.720Z,70.51
2023-09-06T10:30:03.901Z,70.66
2023-09-06T10:32:43.340Z,70.39
2023-09-06T10:35:17.324Z,70.80
2023-09-06T10:37:50.787Z,70.58
2023-09-06T10:40:20.448Z,70.77
2023-09-06T10:42:47.804Z,70.66
2023-09-06T10:45:15.734Z,70.38
2023-09-06T10:47:44.122Z,70.35
2023-09-06T10:50:14.013Z,70.29
2023-09-06T10:52:42.886Z,69.54
2023-09-06T10:55:22.526Z,69.32
2023-09-06T10:57:53.880Z,69.08
2023-09-06T11:00:27.142Z,69.38
2023-09-06T11:03:01.221Z,69.43
2023-09-06T11:05:34.230Z,69.60
2023-09-06T11:08:02.130Z,69.28
2023-09-06T11:10:38.887Z,68.72
2023-09-06T11:13:11.849Z,67.88
2023-09-06T11:15:42.326Z,68.49
2023-09-06T11:18:10.974Z,69.11
2023-09-06T11:20:39.264Z,68.90
2023-09-06T11:23:06.937Z,68.28
2023-09-06T11:25:34.785Z,68.10
2023-09-06T11:28:16.133Z,68.16
2023-09-06T11:30:46.272Z,68.64
2023-09-06T11:33:14.294Z,68.36
2023-09-06T11:35:53.197Z,68.56
2023-09-06T11:38:26.789Z,68.01
2023-09-06T11:40:54.966Z,67.81
2023-09-06T11:43:25.797Z,67.73
2023-09-06T11:45:55.339Z,66.99
2023-09-06T11:48:29.377Z,68.82
2023-09-06T11:51:01.096Z,68.11
2023-09-06T11:53:29.037Z,67.67
2023-09-06T11:56:01.347Z,67.48
2023-09-06T11:58:31.426Z,67.05
2023-09-06T12:01:03.087Z,66.97
2023-09-06T12:03:35.606Z,67.24
2023-09-06T12:06:05.193Z,66.42
2023-09-06T12:08:35.528Z,67.38
2023-09-06T12:11:07.891Z,66.69
2023-09-06T12:13:37.296Z,65.94
2023-09-06T12:16:07.428Z,65.73
2023-09-06T12:18:37.384Z,66.24
2023-09-06T12:21:06.565Z,67.35
2023-09-06T12:23:37.949Z,67.59
2023-09-06T12:26:07.340Z,66.88
2023-09-06T12:28:35.623Z,65.54
2023-09-06T12:31:15.293Z,65.65
2023-09-06T12:33:47.157Z,65.92
2023-09-06T12:36:18.783Z,66.36
2023-09-06T12:38:46.803Z,66.02
2023-09-06T12:41:14.566Z,65.27
2023-09-06T12:43:42.061Z,65.45
2023-09-06T12:46:10.323Z,64.83
2023-09-06T12:48:38.160Z,64.48
2023-09-06T12:51:08.232Z,65.49
2023-09-06T12:53:36.228Z,64.67
2023-09-06T12:56:04.757Z,64.35
2023-09-06T12:58:32.862Z,64.71
2023-09-06T13:01:02.119Z,64.45
2023-09-06T13:03:29.922Z,64.38
2023-09-06T13:06:00.177Z,63.59
2023-09-06T13:08:27.878Z,63.27
2023-09-06T13:10:56.203Z,63.91
2023-09-06T13:13:24.730Z,62.91
2023-09-06T13:15:52.507Z,62.79
2023-09-06T13:18:21.750Z,64.74
2023-09-06T13:20:51.102Z,64.48
2023-09-06T13:23:18.689Z,63.30
2023-09-06T13:25:46.352Z,62.71
2023-09-06T13:28:13.991Z,62.62
2023-09-06T13:30:41.662Z,62.42
2023-09-06T13:33:09.392Z,62.19
2023-09-06T13:35:37.056Z,61.63
2023-09-06T13:38:05.050Z,61.33
2023-09-06T13:40:32.802Z,61.07
2023-09-06T13:43:08.618Z,61.64
2023-09-06T13:45:36.759Z,60.93
2023-09-06T13:48:05.300Z,60.28
2023-09-06T13:50:33.006Z,60.92
2023-09-06T13:53:00.711Z,59.96
2023-09-06T13:55:28.458Z,59.87
2023-09-06T13:57:56.597Z,60.96
2023-09-06T14:00:25.674Z,60.47
2023-09-06T14:02:53.689Z,59.72
2023-09-06T14:05:21.782Z,60.21
2023-09-06T14:07:50.556Z,60.46
2023-09-06T14:10:18.589Z,61.23
2023-09-06T14:12:47.393Z,60.71
2023-09-06T14:15:15.031Z,60.18
2023-09-06T14:17:42.741Z,59.89
2023-09-06T14:20:11.495Z,59.55
2023-09-06T14:22:39.087Z,58.13
2023-09-06T14:25:07.355Z,57.23
2023-09-06T14:27:35.061Z,58.11
2023-09-06T14:30:02.840Z,58.56
2023-09-06T14:32:30.282Z,58.79
2023-09-06T14:34:58.234Z,57.80
2023-09-06T14:37:26.670Z,57.05
2023-09-06T14:39:54.419Z,57.08
2023-09-06T14:42:22.212Z,57.02
2023-09-06T14:44:49.982Z,56.48
2023-09-06T14:47:18.174Z,56.87
2023-09-06T14:49:46.489Z,56.82
2023-09-06T14:52:14.720Z,56.54
2023-09-06T14:54:42.652Z,55.97
2023-09-06T14:57:11.645Z,57.03
2023-09-06T14:59:40.276Z,56.55
2023-09-06T15:02:08.909Z,57.32
2023-09-06T15:04:37.109Z,57.07
2023-09-06T15:07:05.479Z,56.32
2023-09-06T15:09:33.417Z,56.04
2023-09-06T15:12:03.228Z,55.40
2023-09-06T15:14:31.781Z,56.39
2023-09-06T15:16:59.952Z,56.73
2023-09-06T15:19:31.347Z,57.33
2023-09-06T15:21:59.064Z,57.47
2023-09-06T15:24:27.389Z,57.03
2023-09-06T15:26:57.067Z,56.18
2023-09-06T15:29:25.392Z,55.76
2023-09-06T15:31:55.634Z,55.92
2023-09-06T15:34:23.517Z,56.44
2023-09-06T15:36:51.568Z,56.63
2023-09-06T15:39:19.335Z,56.55
2023-09-06T15:41:47.466Z,56.66
2023-09-06T15:44:16.027Z,56.83
2023-09-06T15:46:44.865Z,56.55
2023-09-06T15:49:13.666Z,54.96
2023-09-06T15:51:42.065Z,55.50
2023-09-06T15:54:10.875Z,55.76
2023-09-06T15:56:39.330Z,56.07
2023-09-06T15:59:08.990Z,56.94
2023-09-06T16:01:41.030Z,57.29
2023-09-06T16:07:10.379Z,57.37
2023-09-06T16:09:43.967Z,57.63
2023-09-06T16:12:11.596Z,57.72
2023-09-06T16:14:38.927Z,58.14
2023-09-06T16:17:17.514Z,58.04
2023-09-06T16:19:50.501Z,57.96
2023-09-06T16:23:12.289Z,57.84
2023-09-06T16:25:36.301Z,57.86
2023-09-06T16:28:13.848Z,58.24
2023-09-06T16:31:03.168Z,58.12
2023-09-06T16:33:41.619Z,59.38
2023-09-06T16:36:09.090Z,60.09
2023-09-06T16:38:36.830Z,60.01
2023-09-06T16:41:04.466Z,60.49
2023-09-06T16:43:32.230Z,60.54
2023-09-06T16:46:07.541Z,60.71
2023-09-06T16:48:36.182Z,59.93
2023-09-06T16:51:08.679Z,59.98
2023-09-06T16:56:21.622Z,61.58
2023-09-06T16:58:49.720Z,61.26
2023-09-06T17:01:17.435Z,60.70
2023-09-06T17:03:44.532Z,60.18
2023-09-06T17:06:13.551Z,59.91
2023-09-06T17:08:41.590Z,60.94
2023-09-06T17:13:37.971Z,61.13
2023-09-06T17:16:07.459Z,60.91
2023-09-06T17:18:35.816Z,61.43
2023-09-06T17:21:15.698Z,60.83
2023-09-06T17:23:56.945Z,61.14
2023-09-06T17:26:33.021Z,62.04
2023-09-06T17:29:07.468Z,62.19
2023-09-06T17:31:35.919Z,62.17
2023-09-06T17:34:03.882Z,62.47
2023-09-06T17:39:15.361Z,62.55
2023-09-06T17:41:46.461Z,64.40
2023-09-06T17:44:15.623Z,64.88
2023-09-06T17:46:43.299Z,64.84
2023-09-06T17:49:10.949Z,65.56
2023-09-06T17:51:40.529Z,66.10
2023-09-06T17:54:08.136Z,65.70
2023-09-06T17:56:38.477Z,66.44
2023-09-06T17:59:08.877Z,65.29
2023-09-06T18:01:37.624Z,64.97
2023-09-06T18:06:34.338Z,65.46
2023-09-06T18:09:09.174Z,66.73
2023-09-06T18:11:37.630Z,67.12
2023-09-06T18:14:09.572Z,67.57
2023-09-06T18:16:43.887Z,67.46
2023-09-06T18:19:11.311Z,68.27
2023-09-06T18:21:39.164Z,68.29
2023-09-06T18:24:10.720Z,68.53
2023-09-06T18:26:38.359Z,67.70
2023-09-06T18:29:05.900Z,66.93
2023-09-06T18:31:33.486Z,66.73
2023-09-06T18:34:00.649Z,66.26
2023-09-06T18:36:28.292Z,66.77
2023-09-06T18:38:55.692Z,65.83
2023-09-06T18:41:23.006Z,65.13
2023-09-06T18:43:50.653Z,65.22
2023-09-06T18:46:18.155Z,64.31
2023-09-06T18:48:45.367Z,64.62
2023-09-06T18:51:12.805Z,64.28
2023-09-06T18:53:43.436Z,64.32
2023-09-06T18:56:12.881Z,64.90
2023-09-06T18:58:41.255Z,64.83
2023-09-06T19:01:14.950Z,64.94
2023-09-06T19:03:43.522Z,65.27
2023-09-06T19:06:12.268Z,65.31
2023-09-06T19:08:40.757Z,65.71
2023-09-06T19:11:11.233Z,66.31
2023-09-06T19:13:38.772Z,66.72
2023-09-06T19:16:06.436Z,67.14
2023-09-06T19:21:01.329Z,66.69
2023-09-06T19:23:29.030Z,67.36
2023-09-06T19:25:56.898Z,67.67
2023-09-06T19:28:25.245Z,68.11
2023-09-06T19:30:55.596Z,68.23
2023-09-06T19:33:23.365Z,68.50
2023-09-06T19:35:51.292Z,68.72
2023-09-06T19:38:26.090Z,68.80
2023-09-06T19:43:22.460Z,69.57
2023-09-06T19:45:57.874Z,69.33
2023-09-06T19:48:26.667Z,69.92
2023-09-06T19:50:54.782Z,69.55
2023-09-06T19:53:24.931Z,70.20
2023-09-06T19:55:53.425Z,70.09
2023-09-06T19:58:21.030Z,70.80
2023-09-06T20:00:48.716Z,71.13
2023-09-06T20:03:16.217Z,71.50
2023-09-06T20:05:43.972Z,71.08
2023-09-06T20:08:11.807Z,71.30
2023-09-06T20:13:13.070Z,72.09
2023-09-06T20:15:40.486Z,72.16
2023-09-06T20:18:08.387Z,72.38
2023-09-06T20:20:38.766Z,72.20
2023-09-06T20:23:06.368Z,72.22
2023-09-06T20:25:34.520Z,72.75
2023-09-06T20:28:04.250Z,72.74
2023-09-06T20:30:31.617Z,73.85
2023-09-06T20:32:59.489Z,73.74
2023-09-06T20:35:26.931Z,73.99
2023-09-06T20:37:54.333Z,74.67
2023-09-06T20:40:21.810Z,74.13
2023-09-06T20:42:50.787Z,74.18
2023-09-06T20:45:18.124Z,74.88
2023-09-06T20:47:45.426Z,75.54
2023-09-06T20:50:16.208Z,75.91
2023-09-06T20:52:43.607Z,75.95
2023-09-06T20:55:12.249Z,76.50
2023-09-06T20:57:39.568Z,75.88
2023-09-06T21:00:10.767Z,76.25
2023-09-06T21:02:38.577Z,75.56
2023-09-06T21:05:06.423Z,76.11
2023-09-06T21:07:33.889Z,76.61
2023-09-06T21:10:01.146Z,76.92
2023-09-06T21:12:28.734Z,76.36
2023-09-06T21:14:56.093Z,77.10
2023-09-06T21:17:23.486Z,77.67
2023-09-06T21:19:51.344Z,77.07
2023-09-06T21:22:18.560Z,77.08
2023-09-06T21:24:45.870Z,77.20
2023-09-06T21:27:13.431Z,77.63
2023-09-06T21:29:40.665Z,77.89
2023-09-06T21:32:08.170Z,77.67
2023-09-06T21:34:35.462Z,77.86
2023-09-06T21:37:02.915Z,77.68
2023-09-06T21:39:30.273Z,78.40
2023-09-06T21:42:04.906Z,78.57
2023-09-06T21:44:32.263Z,78.53
2023-09-06T21:46:59.632Z,79.25
2023-09-06T21:49:26.809Z,79.27
2023-09-06T21:51:58.278Z,79.67
2023-09-06T21:54:32.634Z,79.73
2023-09-06T21:57:00.373Z,79.51
2023-09-06T21:59:27.528Z,79.54
2023-09-06T22:01:57.174Z,79.70
2023-09-06T22:04:24.503Z,80.14
2023-09-06T22:06:51.842Z,80.26
2023-09-06T22:09:19.124Z,80.77
2023-09-06T22:11:48.766Z,80.96
2023-09-06T22:14:17.616Z,81.09
2023-09-06T22:16:45.837Z,81.63
2023-09-06T22:19:14.649Z,82.24
2023-09-06T22:21:43.019Z,82.13
2023-09-06T22:24:12.092Z,82.61
2023-09-06T22:26:39.309Z,82.80
2023-09-06T22:29:07.065Z,83.65
2023-09-06T22:31:36.227Z,83.26
2023-09-06T22:34:05.511Z,83.22
2023-09-06T22:36:32.689Z,83.94
2023-09-06T22:38:59.880Z,83.94
2023-09-06T22:41:27.170Z,83.95
2023-09-06T22:43:54.588Z,84.30
2023-09-06T22:46:22.067Z,84.83
2023-09-06T22:48:54.803Z,84.36
2023-09-06T22:51:22.764Z,84.32
2023-09-06T22:53:50.388Z,85.28
2023-09-06T22:56:20.504Z,85.62
2023-09-06T22:58:47.693Z,85.73
2023-09-06T23:01:14.945Z,86.15
2023-09-06T23:03:44.059Z,86.89
2023-09-06T23:06:12.328Z,86.89
2023-09-06T23:08:45.533Z,87.96
2023-09-06T23:11:13.789Z,88.16
2023-09-06T23:13:41.300Z,87.88
2023-09-06T23:16:10.404Z,87.65
2023-09-06T23:18:44.674Z,88.04
2023-09-06T23:21:14.294Z,87.77
2023-09-06T23:23:44.058Z,87.78
2023-09-06T23:26:13.503Z,87.77
2023-09-06T23:28:45.406Z,88.33
2023-09-06T23:31:15.399Z,88.24
2023-09-06T23:33:45.509Z,88.37
2023-09-06T23:36:17.120Z,88.76
2023-09-06T23:38:46.958Z,88.36
2023-09-06T23:41:17.871Z,89.02
2023-09-06T23:43:45.894Z,89.26
2023-09-06T23:46:13.756Z,89.00
2023-09-06T23:48:41.202Z,88.62
2023-09-06T23:51:08.317Z,88.62
2023-09-06T23:53:35.815Z,89.41
2023-09-06T23:56:05.209Z,88.92
2023-09-06T23:58:32.654Z,88.53
